Date,TemperatureHighF,TemperatureAvgF,TemperatureLowF,DewpointHighF,DewpointAvgF,DewpointLowF,HumidityHigh,HumidityAvg,HumidityLow,PressureMaxIn,PressureMinIn,WindSpeedMaxMPH,WindSpeedAvgMPH,GustSpeedMaxMPH,PrecipitationSumIn
2013-2-1,22.3,15.8,10.4,4.9,-0.1,-5.6,63,49,35,30.42,29.91,22,12,22,0.00
2013-2-2,23.2,16.3,3.7,13.3,5.9,-6.9,72,63,51,30.20,29.94,17,5,17,0.00
2013-2-3,21.6,13.6,3.9,9.4,-0.7,-7.2,62,53,41,30.01,29.84,15,5,15,0.00
2013-2-4,23.0,17.6,8.1,11.1,6.8,-5.5,69,62,49,30.02,29.89,6,2,6,0.00
2013-2-5,27.3,21.7,11.1,20.9,11.4,4.2,81,65,42,29.95,29.81,14,5,14,0.00
2013-2-6,34.2,25.6,10.6,20.8,10.9,1.8,78,54,36,30.31,29.85,11,4,11,0.02
2013-2-7,36.1,32.0,26.1,22.6,20.0,16.4,70,61,55,30.23,29.96,14,7,14,0.00
2013-2-8,30.0,26.4,23.0,26.2,19.4,13.3,90,75,63,30.32,29.79,17,8,17,0.00
2013-2-9,36.3,22.1,6.4,17.4,10.2,-1.5,77,61,40,30.44,30.32,9,3,9,0.11
2013-2-10,55.0,49.9,37.2,51.4,43.5,32.8,91,79,67,30.24,29.93,13,5,13,0.14
2013-2-11,57.4,48.1,36.9,53.0,44.9,33.6,97,89,79,30.17,29.93,12,2,12,0.00
2013-2-12,70.0,53.9,40.3,57.6,49.0,40.0,99,85,55,30.23,30.00,8,2,8,0.00
2013-2-13,70.3,53.8,38.5,48.0,42.7,38.2,99,71,36,30.28,30.18,10,2,10,0.00
2013-2-14,71.1,55.6,41.4,52.6,45.7,41.1,99,74,40,30.19,30.09,9,2,9,0.00
2013-2-15,74.1,52.8,25.5,52.6,38.0,5.7,99,62,32,30.11,29.97,12,3,12,0.00
2013-2-16,28.0,23.4,17.6,14.4,10.4,4.9,71,57,40,30.05,29.98,13,4,13,0.00
2013-2-17,25.9,17.4,8.1,7.0,-1.4,-6.4,67,44,28,30.22,30.03,14,5,14,0.00
2013-2-18,36.9,26.6,8.6,25.9,14.0,-3.2,71,59,46,30.22,29.72,17,5,17,0.00
2013-2-19,44.8,29.0,18.7,38.6,18.1,2.2,90,64,47,30.10,29.42,29,15,29,0.13
2013-2-20,23.0,20.1,16.2,8.7,4.7,-0.6,60,51,44,30.21,29.90,20,10,20,0.00
2013-2-21,24.4,19.7,16.5,13.0,6.9,2.8,69,57,47,30.39,29.89,19,6,19,0.00
2013-2-22,30.6,25.7,20.5,27.2,20.1,11.6,87,79,68,30.29,29.91,17,7,17,0.00
2013-2-23,35.4,32.3,30.0,30.7,20.5,15.9,89,62,49,29.91,29.85,16,8,16,0.04
2013-2-24,36.7,28.3,19.0,23.5,18.0,11.2,75,65,56,30.15,29.88,14,6,14,0.00
2013-2-25,42.8,30.0,14.0,23.2,17.0,7.2,78,59,43,30.24,30.12,11,2,11,0.00
2013-2-26,38.7,30.7,22.3,30.3,22.8,15.0,91,73,53,30.15,29.56,22,7,22,0.07
2013-2-27,37.2,34.3,32.5,34.0,30.6,29.1,93,86,78,29.59,29.49,13,4,13,0.26
2013-2-28,38.3,33.3,29.5,30.5,27.2,21.2,89,78,66,29.95,29.55,14,6,14,0.05